sensor_id;sensor_type;location;lat;lon;timestamp;P1;durP1;ratioP1;P2;durP2;ratioP2
60239;SDS011;46102;39.012;-7.064;2023-02-15T00:01:22;5.50;;;3.58;;
60239;SDS011;46102;39.012;-7.064;2023-02-15T00:03:22;4.82;;;3.38;;
60239;SDS011;46102;39.012;-7.064;2023-02-15T00:05:23;4.70;;;2.85;;
60239;SDS011;46102;39.012;-7.064;2023-02-15T00:07:24;4.57;;;3.25;;
60239;SDS011;46102;39.012;-7.064;2023-02-15T00:09:25;5.05;;;3.63;;
60239;SDS011;46102;39.012;-7.064;2023-02-15T00:11:25;6.90;;;3.33;;
60239;SDS011;46102;39.012;-7.064;2023-02-15T00:13:50;9.80;;;3.30;;
60239;SDS011;46102;39.012;-7.064;2023-02-15T00:15:51;7.38;;;3.35;;
60239;SDS011;46102;39.012;-7.064;2023-02-15T00:17:52;3.88;;;3.15;;
60239;SDS011;46102;39.012;-7.064;2023-02-15T00:19:53;12.77;;;3.60;;
60239;SDS011;46102;39.012;-7.064;2023-02-15T00:21:53;5.28;;;3.67;;
60239;SDS011;46102;39.012;-7.064;2023-02-15T00:23:54;4.75;;;3.30;;
60239;SDS011;46102;39.012;-7.064;2023-02-15T00:26:08;6.90;;;3.25;;
60239;SDS011;46102;39.012;-7.064;2023-02-15T00:28:11;6.10;;;3.17;;
60239;SDS011;46102;39.012;-7.064;2023-02-15T00:30:12;9.35;;;3.63;;
60239;SDS011;46102;39.012;-7.064;2023-02-15T00:32:13;8.30;;;3.35;;
60239;SDS011;46102;39.012;-7.064;2023-02-15T00:36:16;7.78;;;2.95;;
60239;SDS011;46102;39.012;-7.064;2023-02-15T00:38:17;7.68;;;2.92;;
60239;SDS011;46102;39.012;-7.064;2023-02-15T00:40:18;4.00;;;3.03;;
60239;SDS011;46102;39.012;-7.064;2023-02-15T00:42:19;9.93;;;3.42;;
60239;SDS011;46102;39.012;-7.064;2023-02-15T00:44:20;8.40;;;3.88;;
60239;SDS011;46102;39.012;-7.064;2023-02-15T00:46:20;8.23;;;3.35;;
60239;SDS011;46102;39.012;-7.064;2023-02-15T00:48:21;6.47;;;3.88;;
60239;SDS011;46102;39.012;-7.064;2023-02-15T00:50:22;5.00;;;3.42;;
60239;SDS011;46102;39.012;-7.064;2023-02-15T00:52:23;7.15;;;3.10;;
60239;SDS011;46102;39.012;-7.064;2023-02-15T00:54:24;7.57;;;3.33;;
60239;SDS011;46102;39.012;-7.064;2023-02-15T00:56:25;7.97;;;3.65;;
60239;SDS011;46102;39.012;-7.064;2023-02-15T00:58:28;9.98;;;3.80;;
60239;SDS011;46102;39.012;-7.064;2023-02-15T01:00:29;3.95;;;2.85;;
60239;SDS011;46102;39.012;-7.064;2023-02-15T01:02:30;5.78;;;2.90;;
60239;SDS011;46102;39.012;-7.064;2023-02-15T01:04:31;9.13;;;2.95;;
60239;SDS011;46102;39.012;-7.064;2023-02-15T01:06:32;4.72;;;2.47;;
60239;SDS011;46102;39.012;-7.064;2023-02-15T01:08:33;6.00;;;3.42;;
60239;SDS011;46102;39.012;-7.064;2023-02-15T01:10:34;7.85;;;3.22;;
60239;SDS011;46102;39.012;-7.064;2023-02-15T01:12:35;4.60;;;3.08;;
60239;SDS011;46102;39.012;-7.064;2023-02-15T01:14:36;9.10;;;3.38;;
60239;SDS011;46102;39.012;-7.064;2023-02-15T01:16:38;6.50;;;2.90;;
60239;SDS011;46102;39.012;-7.064;2023-02-15T01:18:39;11.27;;;3.85;;
60239;SDS011;46102;39.012;-7.064;2023-02-15T01:20:41;10.02;;;3.63;;
60239;SDS011;46102;39.012;-7.064;2023-02-15T01:22:43;10.10;;;3.10;;
60239;SDS011;46102;39.012;-7.064;2023-02-15T01:24:43;3.65;;;2.75;;
60239;SDS011;46102;39.012;-7.064;2023-02-15T01:26:45;3.03;;;2.83;;
60239;SDS011;46102;39.012;-7.064;2023-02-15T01:28:46;3.00;;;2.63;;
60239;SDS011;46102;39.012;-7.064;2023-02-15T01:30:47;6.00;;;3.28;;
60239;SDS011;46102;39.012;-7.064;2023-02-15T01:32:49;5.70;;;3.40;;
60239;SDS011;46102;39.012;-7.064;2023-02-15T01:34:50;6.72;;;3.15;;
60239;SDS011;46102;39.012;-7.064;2023-02-15T01:36:51;7.05;;;3.03;;
60239;SDS011;46102;39.012;-7.064;2023-02-15T01:38:51;5.57;;;3.08;;
60239;SDS011;46102;39.012;-7.064;2023-02-15T01:40:53;5.43;;;2.88;;
60239;SDS011;46102;39.012;-7.064;2023-02-15T01:43:14;4.53;;;3.33;;
60239;SDS011;46102;39.012;-7.064;2023-02-15T01:47:27;8.15;;;3.15;;
60239;SDS011;46102;39.012;-7.064;2023-02-15T01:49:43;5.05;;;3.13;;
60239;SDS011;46102;39.012;-7.064;2023-02-15T01:51:47;3.95;;;3.10;;
60239;SDS011;46102;39.012;-7.064;2023-02-15T01:53:55;8.13;;;2.60;;
60239;SDS011;46102;39.012;-7.064;2023-02-15T01:56:03;6.15;;;3.05;;
60239;SDS011;46102;39.012;-7.064;2023-02-15T01:58:08;11.13;;;3.17;;
60239;SDS011;46102;39.012;-7.064;2023-02-15T02:00:09;10.27;;;2.38;;
60239;SDS011;46102;39.012;-7.064;2023-02-15T02:06:19;4.53;;;2.60;;
60239;SDS011;46102;39.012;-7.064;2023-02-15T02:08:20;3.47;;;2.65;;
60239;SDS011;46102;39.012;-7.064;2023-02-15T02:10:21;5.03;;;3.08;;
60239;SDS011;46102;39.012;-7.064;2023-02-15T02:12:23;4.68;;;3.13;;
60239;SDS011;46102;39.012;-7.064;2023-02-15T02:14:25;8.50;;;3.60;;
60239;SDS011;46102;39.012;-7.064;2023-02-15T02:18:50;6.07;;;2.67;;
60239;SDS011;46102;39.012;-7.064;2023-02-15T02:21:50;4.15;;;3.08;;
60239;SDS011;46102;39.012;-7.064;2023-02-15T02:24:07;5.93;;;2.95;;
60239;SDS011;46102;39.012;-7.064;2023-02-15T02:30:50;5.97;;;2.75;;
60239;SDS011;46102;39.012;-7.064;2023-02-15T02:35:22;9.02;;;3.20;;
60239;SDS011;46102;39.012;-7.064;2023-02-15T02:44:14;9.00;;;3.58;;
60239;SDS011;46102;39.012;-7.064;2023-02-15T02:48:39;3.42;;;3.00;;
60239;SDS011;46102;39.012;-7.064;2023-02-15T02:50:40;6.85;;;3.15;;
60239;SDS011;46102;39.012;-7.064;2023-02-15T02:52:46;8.65;;;3.22;;
60239;SDS011;46102;39.012;-7.064;2023-02-15T02:54:49;6.20;;;3.42;;
60239;SDS011;46102;39.012;-7.064;2023-02-15T02:56:50;6.15;;;3.13;;
60239;SDS011;46102;39.012;-7.064;2023-02-15T02:58:55;3.97;;;3.20;;
60239;SDS011;46102;39.012;-7.064;2023-02-15T03:03:11;9.60;;;4.13;;
60239;SDS011;46102;39.012;-7.064;2023-02-15T03:05:16;7.78;;;3.17;;
60239;SDS011;46102;39.012;-7.064;2023-02-15T03:07:22;9.63;;;3.58;;
60239;SDS011;46102;39.012;-7.064;2023-02-15T03:09:39;4.32;;;3.10;;
60239;SDS011;46102;39.012;-7.064;2023-02-15T03:11:48;4.60;;;2.67;;
60239;SDS011;46102;39.012;-7.064;2023-02-15T03:13:50;3.95;;;3.03;;
60239;SDS011;46102;39.012;-7.064;2023-02-15T03:15:51;8.40;;;3.65;;
60239;SDS011;46102;39.012;-7.064;2023-02-15T03:18:11;6.38;;;3.22;;
60239;SDS011;46102;39.012;-7.064;2023-02-15T03:20:18;4.40;;;2.85;;
60239;SDS011;46102;39.012;-7.064;2023-02-15T03:22:31;4.78;;;2.75;;
60239;SDS011;46102;39.012;-7.064;2023-02-15T03:26:46;5.25;;;2.63;;
60239;SDS011;46102;39.012;-7.064;2023-02-15T03:28:51;6.38;;;2.80;;
60239;SDS011;46102;39.012;-7.064;2023-02-15T03:30:57;2.97;;;2.58;;
60239;SDS011;46102;39.012;-7.064;2023-02-15T03:33:01;9.73;;;3.08;;
60239;SDS011;46102;39.012;-7.064;2023-02-15T03:35:05;3.27;;;2.80;;
60239;SDS011;46102;39.012;-7.064;2023-02-15T03:41:27;5.03;;;2.53;;
60239;SDS011;46102;39.012;-7.064;2023-02-15T03:45:52;8.48;;;3.25;;
60239;SDS011;46102;39.012;-7.064;2023-02-15T03:48:00;4.20;;;2.85;;
60239;SDS011;46102;39.012;-7.064;2023-02-15T03:50:05;3.50;;;2.83;;
60239;SDS011;46102;39.012;-7.064;2023-02-15T03:52:26;2.67;;;2.28;;
60239;SDS011;46102;39.012;-7.064;2023-02-15T03:54:30;3.30;;;2.60;;
60239;SDS011;46102;39.012;-7.064;2023-02-15T03:56:51;6.10;;;3.03;;
60239;SDS011;46102;39.012;-7.064;2023-02-15T03:59:14;5.00;;;3.17;;
60239;SDS011;46102;39.012;-7.064;2023-02-15T04:02:11;12.93;;;2.80;;
60239;SDS011;46102;39.012;-7.064;2023-02-15T04:04:22;4.00;;;2.70;;
60239;SDS011;46102;39.012;-7.064;2023-02-15T04:06:27;5.63;;;3.05;;
60239;SDS011;46102;39.012;-7.064;2023-02-15T04:08:28;4.75;;;2.83;;
60239;SDS011;46102;39.012;-7.064;2023-02-15T04:10:47;3.45;;;2.80;;
60239;SDS011;46102;39.012;-7.064;2023-02-15T04:12:56;3.30;;;2.45;;
60239;SDS011;46102;39.012;-7.064;2023-02-15T04:14:56;3.10;;;2.63;;
60239;SDS011;46102;39.012;-7.064;2023-02-15T04:17:16;5.60;;;2.58;;
60239;SDS011;46102;39.012;-7.064;2023-02-15T04:19:17;5.22;;;3.30;;
60239;SDS011;46102;39.012;-7.064;2023-02-15T04:21:36;3.10;;;2.35;;
60239;SDS011;46102;39.012;-7.064;2023-02-15T04:23:55;2.17;;;2.08;;
60239;SDS011;46102;39.012;-7.064;2023-02-15T04:26:14;5.07;;;2.75;;
60239;SDS011;46102;39.012;-7.064;2023-02-15T04:28:15;4.45;;;2.45;;
60239;SDS011;46102;39.012;-7.064;2023-02-15T04:30:16;3.90;;;2.10;;
60239;SDS011;46102;39.012;-7.064;2023-02-15T04:32:18;5.40;;;2.40;;
60239;SDS011;46102;39.012;-7.064;2023-02-15T04:34:19;6.18;;;2.63;;
60239;SDS011;46102;39.012;-7.064;2023-02-15T04:36:21;3.72;;;2.30;;
60239;SDS011;46102;39.012;-7.064;2023-02-15T04:38:22;2.15;;;2.05;;
60239;SDS011;46102;39.012;-7.064;2023-02-15T04:40:22;3.85;;;2.30;;
60239;SDS011;46102;39.012;-7.064;2023-02-15T04:42:24;2.90;;;2.10;;
60239;SDS011;46102;39.012;-7.064;2023-02-15T04:44:26;2.92;;;2.50;;
60239;SDS011;46102;39.012;-7.064;2023-02-15T04:46:27;4.30;;;2.22;;
60239;SDS011;46102;39.012;-7.064;2023-02-15T04:48:28;5.80;;;2.60;;
60239;SDS011;46102;39.012;-7.064;2023-02-15T04:50:29;2.53;;;2.35;;
60239;SDS011;46102;39.012;-7.064;2023-02-15T04:52:29;6.50;;;2.85;;
60239;SDS011;46102;39.012;-7.064;2023-02-15T04:54:30;6.00;;;2.15;;
60239;SDS011;46102;39.012;-7.064;2023-02-15T04:56:31;2.50;;;2.30;;
60239;SDS011;46102;39.012;-7.064;2023-02-15T04:58:34;4.05;;;2.60;;
60239;SDS011;46102;39.012;-7.064;2023-02-15T05:00:37;4.88;;;2.60;;
60239;SDS011;46102;39.012;-7.064;2023-02-15T05:02:37;3.28;;;2.67;;
60239;SDS011;46102;39.012;-7.064;2023-02-15T05:04:38;2.53;;;2.33;;
60239;SDS011;46102;39.012;-7.064;2023-02-15T05:06:39;3.78;;;2.75;;
60239;SDS011;46102;39.012;-7.064;2023-02-15T05:08:40;3.60;;;2.30;;
60239;SDS011;46102;39.012;-7.064;2023-02-15T05:10:40;3.53;;;2.08;;
60239;SDS011;46102;39.012;-7.064;2023-02-15T05:12:41;2.35;;;2.17;;
60239;SDS011;46102;39.012;-7.064;2023-02-15T05:14:42;2.78;;;1.92;;
60239;SDS011;46102;39.012;-7.064;2023-02-15T05:16:43;2.92;;;2.47;;
60239;SDS011;46102;39.012;-7.064;2023-02-15T05:18:43;2.88;;;2.38;;
60239;SDS011;46102;39.012;-7.064;2023-02-15T05:20:44;3.03;;;2.30;;
60239;SDS011;46102;39.012;-7.064;2023-02-15T05:22:45;2.65;;;2.20;;
60239;SDS011;46102;39.012;-7.064;2023-02-15T05:24:46;4.47;;;2.40;;
60239;SDS011;46102;39.012;-7.064;2023-02-15T05:27:05;2.78;;;2.13;;
60239;SDS011;46102;39.012;-7.064;2023-02-15T05:29:24;3.60;;;2.22;;
60239;SDS011;46102;39.012;-7.064;2023-02-15T05:31:25;4.53;;;2.60;;
60239;SDS011;46102;39.012;-7.064;2023-02-15T05:33:26;2.78;;;2.47;;
60239;SDS011;46102;39.012;-7.064;2023-02-15T05:35:27;2.97;;;2.78;;
60239;SDS011;46102;39.012;-7.064;2023-02-15T05:37:27;3.45;;;2.60;;
60239;SDS011;46102;39.012;-7.064;2023-02-15T05:39:28;2.20;;;1.83;;
60239;SDS011;46102;39.012;-7.064;2023-02-15T05:41:29;3.45;;;2.25;;
60239;SDS011;46102;39.012;-7.064;2023-02-15T05:43:30;2.58;;;2.45;;
60239;SDS011;46102;39.012;-7.064;2023-02-15T05:45:31;4.32;;;2.08;;
60239;SDS011;46102;39.012;-7.064;2023-02-15T05:47:32;1.98;;;1.83;;
60239;SDS011;46102;39.012;-7.064;2023-02-15T05:49:33;5.32;;;2.22;;
60239;SDS011;46102;39.012;-7.064;2023-02-15T05:51:34;2.50;;;2.30;;
60239;SDS011;46102;39.012;-7.064;2023-02-15T05:53:36;2.25;;;2.13;;
60239;SDS011;46102;39.012;-7.064;2023-02-15T05:55:38;8.82;;;2.70;;
60239;SDS011;46102;39.012;-7.064;2023-02-15T05:57:40;2.15;;;2.05;;
60239;SDS011;46102;39.012;-7.064;2023-02-15T05:59:41;2.58;;;2.45;;
60239;SDS011;46102;39.012;-7.064;2023-02-15T06:01:41;3.40;;;2.40;;
60239;SDS011;46102;39.012;-7.064;2023-02-15T06:03:42;4.38;;;2.70;;
60239;SDS011;46102;39.012;-7.064;2023-02-15T06:05:44;2.83;;;2.53;;
60239;SDS011;46102;39.012;-7.064;2023-02-15T06:07:45;4.50;;;2.72;;
60239;SDS011;46102;39.012;-7.064;2023-02-15T06:09:45;2.53;;;2.33;;
60239;SDS011;46102;39.012;-7.064;2023-02-15T06:11:46;2.33;;;2.13;;
60239;SDS011;46102;39.012;-7.064;2023-02-15T06:13:47;3.65;;;2.13;;
60239;SDS011;46102;39.012;-7.064;2023-02-15T06:15:48;5.28;;;2.25;;
60239;SDS011;46102;39.012;-7.064;2023-02-15T06:17:48;3.20;;;2.42;;
60239;SDS011;46102;39.012;-7.064;2023-02-15T06:19:49;3.50;;;2.50;;
60239;SDS011;46102;39.012;-7.064;2023-02-15T06:21:50;3.28;;;2.40;;
60239;SDS011;46102;39.012;-7.064;2023-02-15T06:23:51;2.78;;;2.60;;
60239;SDS011;46102;39.012;-7.064;2023-02-15T06:25:51;2.58;;;2.38;;
60239;SDS011;46102;39.012;-7.064;2023-02-15T06:27:52;5.68;;;2.50;;
60239;SDS011;46102;39.012;-7.064;2023-02-15T06:29:53;8.20;;;2.80;;
60239;SDS011;46102;39.012;-7.064;2023-02-15T06:31:54;5.93;;;2.30;;
60239;SDS011;46102;39.012;-7.064;2023-02-15T06:33:54;7.28;;;2.90;;
60239;SDS011;46102;39.012;-7.064;2023-02-15T06:36:01;2.80;;;2.45;;
60239;SDS011;46102;39.012;-7.064;2023-02-15T06:38:02;2.35;;;2.25;;
60239;SDS011;46102;39.012;-7.064;2023-02-15T06:40:03;3.42;;;2.40;;
60239;SDS011;46102;39.012;-7.064;2023-02-15T06:42:04;3.15;;;2.17;;
60239;SDS011;46102;39.012;-7.064;2023-02-15T06:44:05;5.43;;;2.13;;
60239;SDS011;46102;39.012;-7.064;2023-02-15T06:46:05;2.30;;;2.10;;
60239;SDS011;46102;39.012;-7.064;2023-02-15T06:48:06;2.42;;;2.22;;
60239;SDS011;46102;39.012;-7.064;2023-02-15T06:50:08;2.50;;;2.30;;
60239;SDS011;46102;39.012;-7.064;2023-02-15T06:52:09;2.63;;;2.22;;
60239;SDS011;46102;39.012;-7.064;2023-02-15T06:54:10;6.47;;;2.40;;
60239;SDS011;46102;39.012;-7.064;2023-02-15T06:56:12;2.63;;;2.42;;
60239;SDS011;46102;39.012;-7.064;2023-02-15T06:58:13;3.25;;;2.50;;
60239;SDS011;46102;39.012;-7.064;2023-02-15T07:00:14;2.85;;;2.42;;
60239;SDS011;46102;39.012;-7.064;2023-02-15T07:02:15;4.38;;;2.40;;
60239;SDS011;46102;39.012;-7.064;2023-02-15T07:04:15;4.05;;;2.15;;
60239;SDS011;46102;39.012;-7.064;2023-02-15T07:06:16;2.95;;;2.70;;
60239;SDS011;46102;39.012;-7.064;2023-02-15T07:08:17;2.97;;;2.67;;
60239;SDS011;46102;39.012;-7.064;2023-02-15T07:10:20;2.30;;;2.10;;
60239;SDS011;46102;39.012;-7.064;2023-02-15T07:12:21;4.07;;;2.50;;
60239;SDS011;46102;39.012;-7.064;2023-02-15T07:14:40;4.28;;;3.53;;
60239;SDS011;46102;39.012;-7.064;2023-02-15T07:16:41;2.88;;;2.42;;
60239;SDS011;46102;39.012;-7.064;2023-02-15T07:18:41;3.90;;;2.17;;
60239;SDS011;46102;39.012;-7.064;2023-02-15T07:20:42;4.80;;;2.88;;
60239;SDS011;46102;39.012;-7.064;2023-02-15T07:22:43;3.58;;;2.55;;
60239;SDS011;46102;39.012;-7.064;2023-02-15T07:24:44;4.15;;;3.05;;
60239;SDS011;46102;39.012;-7.064;2023-02-15T07:26:45;5.15;;;2.70;;
60239;SDS011;46102;39.012;-7.064;2023-02-15T07:28:45;4.00;;;3.30;;
60239;SDS011;46102;39.012;-7.064;2023-02-15T07:30:46;2.90;;;2.63;;
60239;SDS011;46102;39.012;-7.064;2023-02-15T07:32:48;6.82;;;2.72;;
60239;SDS011;46102;39.012;-7.064;2023-02-15T07:35:07;7.22;;;2.75;;
60239;SDS011;46102;39.012;-7.064;2023-02-15T07:37:08;6.18;;;2.25;;
60239;SDS011;46102;39.012;-7.064;2023-02-15T07:39:09;2.50;;;2.30;;
60239;SDS011;46102;39.012;-7.064;2023-02-15T07:41:11;7.13;;;3.50;;
60239;SDS011;46102;39.012;-7.064;2023-02-15T07:43:13;6.38;;;2.40;;
60239;SDS011;46102;39.012;-7.064;2023-02-15T07:45:14;4.22;;;3.00;;
60239;SDS011;46102;39.012;-7.064;2023-02-15T07:47:15;5.32;;;2.92;;
60239;SDS011;46102;39.012;-7.064;2023-02-15T07:49:16;3.17;;;2.78;;
60239;SDS011;46102;39.012;-7.064;2023-02-15T07:51:16;4.07;;;2.25;;
60239;SDS011;46102;39.012;-7.064;2023-02-15T07:53:17;3.95;;;2.30;;
60239;SDS011;46102;39.012;-7.064;2023-02-15T07:55:18;12.23;;;6.68;;
60239;SDS011;46102;39.012;-7.064;2023-02-15T07:57:19;12.48;;;6.40;;
60239;SDS011;46102;39.012;-7.064;2023-02-15T07:59:20;9.02;;;3.95;;
60239;SDS011;46102;39.012;-7.064;2023-02-15T08:01:29;6.88;;;4.20;;
60239;SDS011;46102;39.012;-7.064;2023-02-15T08:03:32;4.00;;;3.58;;
60239;SDS011;46102;39.012;-7.064;2023-02-15T08:05:33;5.40;;;4.82;;
60239;SDS011;46102;39.012;-7.064;2023-02-15T08:07:34;4.32;;;3.17;;
60239;SDS011;46102;39.012;-7.064;2023-02-15T08:09:34;3.97;;;3.67;;
60239;SDS011;46102;39.012;-7.064;2023-02-15T08:11:36;7.72;;;3.53;;
60239;SDS011;46102;39.012;-7.064;2023-02-15T08:13:37;3.95;;;3.53;;
60239;SDS011;46102;39.012;-7.064;2023-02-15T08:15:53;6.20;;;3.38;;
60239;SDS011;46102;39.012;-7.064;2023-02-15T08:17:55;3.13;;;2.92;;
60239;SDS011;46102;39.012;-7.064;2023-02-15T08:19:56;4.72;;;3.50;;
60239;SDS011;46102;39.012;-7.064;2023-02-15T08:22:04;4.93;;;3.50;;
60239;SDS011;46102;39.012;-7.064;2023-02-15T08:24:07;3.83;;;3.10;;
60239;SDS011;46102;39.012;-7.064;2023-02-15T08:26:08;3.70;;;3.28;;
60239;SDS011;46102;39.012;-7.064;2023-02-15T08:28:09;4.45;;;3.30;;
60239;SDS011;46102;39.012;-7.064;2023-02-15T08:30:11;4.22;;;2.30;;
60239;SDS011;46102;39.012;-7.064;2023-02-15T08:32:14;3.47;;;2.22;;
60239;SDS011;46102;39.012;-7.064;2023-02-15T08:34:16;2.55;;;2.35;;
60239;SDS011;46102;39.012;-7.064;2023-02-15T08:36:19;4.75;;;2.90;;
60239;SDS011;46102;39.012;-7.064;2023-02-15T08:38:21;4.07;;;2.90;;
60239;SDS011;46102;39.012;-7.064;2023-02-15T08:40:22;3.17;;;2.85;;
60239;SDS011;46102;39.012;-7.064;2023-02-15T08:42:23;4.32;;;2.75;;
60239;SDS011;46102;39.012;-7.064;2023-02-15T08:44:24;2.40;;;2.20;;
60239;SDS011;46102;39.012;-7.064;2023-02-15T08:46:26;4.30;;;2.40;;
60239;SDS011;46102;39.012;-7.064;2023-02-15T08:48:28;3.03;;;2.50;;
60239;SDS011;46102;39.012;-7.064;2023-02-15T08:50:29;5.13;;;2.40;;
60239;SDS011;46102;39.012;-7.064;2023-02-15T08:52:29;2.92;;;2.13;;
60239;SDS011;46102;39.012;-7.064;2023-02-15T08:54:30;2.53;;;1.92;;
60239;SDS011;46102;39.012;-7.064;2023-02-15T08:56:35;4.38;;;2.53;;
60239;SDS011;46102;39.012;-7.064;2023-02-15T08:58:37;5.32;;;2.40;;
60239;SDS011;46102;39.012;-7.064;2023-02-15T09:00:38;2.97;;;2.55;;
60239;SDS011;46102;39.012;-7.064;2023-02-15T09:02:39;3.95;;;2.67;;
60239;SDS011;46102;39.012;-7.064;2023-02-15T09:04:40;6.60;;;2.40;;
60239;SDS011;46102;39.012;-7.064;2023-02-15T09:06:41;3.15;;;2.45;;
60239;SDS011;46102;39.012;-7.064;2023-02-15T09:08:44;4.43;;;2.70;;
60239;SDS011;46102;39.012;-7.064;2023-02-15T09:10:45;6.63;;;3.05;;
60239;SDS011;46102;39.012;-7.064;2023-02-15T09:12:46;3.40;;;2.33;;
60239;SDS011;46102;39.012;-7.064;2023-02-15T09:14:46;2.67;;;2.47;;
60239;SDS011;46102;39.012;-7.064;2023-02-15T09:16:48;3.10;;;2.60;;
60239;SDS011;46102;39.012;-7.064;2023-02-15T09:18:51;2.63;;;2.43;;
60239;SDS011;46102;39.012;-7.064;2023-02-15T09:20:52;2.45;;;2.25;;
60239;SDS011;46102;39.012;-7.064;2023-02-15T09:22:55;2.85;;;2.55;;
60239;SDS011;46102;39.012;-7.064;2023-02-15T09:24:56;2.65;;;2.45;;
60239;SDS011;46102;39.012;-7.064;2023-02-15T09:26:56;2.70;;;2.28;;
60239;SDS011;46102;39.012;-7.064;2023-02-15T09:28:58;3.42;;;3.05;;
60239;SDS011;46102;39.012;-7.064;2023-02-15T09:31:08;4.10;;;2.63;;
60239;SDS011;46102;39.012;-7.064;2023-02-15T09:33:11;3.08;;;2.88;;
60239;SDS011;46102;39.012;-7.064;2023-02-15T09:35:11;6.05;;;2.88;;
60239;SDS011;46102;39.012;-7.064;2023-02-15T09:37:12;3.40;;;3.15;;
60239;SDS011;46102;39.012;-7.064;2023-02-15T09:39:14;2.50;;;2.30;;
60239;SDS011;46102;39.012;-7.064;2023-02-15T09:41:56;2.80;;;2.25;;
60239;SDS011;46102;39.012;-7.064;2023-02-15T09:46:27;5.47;;;2.38;;
60239;SDS011;46102;39.012;-7.064;2023-02-15T09:48:42;5.82;;;2.33;;
60239;SDS011;46102;39.012;-7.064;2023-02-15T09:53:14;3.42;;;2.50;;
60239;SDS011;46102;39.012;-7.064;2023-02-15T09:59:42;3.50;;;2.58;;
60239;SDS011;46102;39.012;-7.064;2023-02-15T10:02:26;2.70;;;2.50;;
60239;SDS011;46102;39.012;-7.064;2023-02-15T10:04:53;6.78;;;2.53;;
60239;SDS011;46102;39.012;-7.064;2023-02-15T10:14:07;3.38;;;2.28;;
60239;SDS011;46102;39.012;-7.064;2023-02-15T10:27:22;3.38;;;2.50;;
60239;SDS011;46102;39.012;-7.064;2023-02-15T10:29:35;3.63;;;2.50;;
60239;SDS011;46102;39.012;-7.064;2023-02-15T10:31:39;2.63;;;2.42;;
60239;SDS011;46102;39.012;-7.064;2023-02-15T10:33:45;7.07;;;2.67;;
60239;SDS011;46102;39.012;-7.064;2023-02-15T10:35:53;3.40;;;2.13;;
60239;SDS011;46102;39.012;-7.064;2023-02-15T10:40:21;2.47;;;2.28;;
60239;SDS011;46102;39.012;-7.064;2023-02-15T10:51:13;3.55;;;2.30;;
60239;SDS011;46102;39.012;-7.064;2023-02-15T10:53:30;2.55;;;1.90;;
60239;SDS011;46102;39.012;-7.064;2023-02-15T11:00:13;2.97;;;2.05;;
60239;SDS011;46102;39.012;-7.064;2023-02-15T11:02:25;5.32;;;2.25;;
60239;SDS011;46102;39.012;-7.064;2023-02-15T11:04:58;2.38;;;2.17;;
60239;SDS011;46102;39.012;-7.064;2023-02-15T11:07:06;7.40;;;2.50;;
60239;SDS011;46102;39.012;-7.064;2023-02-15T11:09:14;5.75;;;2.70;;
60239;SDS011;46102;39.012;-7.064;2023-02-15T11:11:22;2.72;;;2.22;;
60239;SDS011;46102;39.012;-7.064;2023-02-15T11:13:27;3.38;;;2.50;;
60239;SDS011;46102;39.012;-7.064;2023-02-15T11:15:36;7.32;;;2.60;;
60239;SDS011;46102;39.012;-7.064;2023-02-15T11:17:46;6.18;;;2.53;;
60239;SDS011;46102;39.012;-7.064;2023-02-15T11:22:15;2.25;;;1.92;;
60239;SDS011;46102;39.012;-7.064;2023-02-15T11:24:17;5.15;;;2.00;;
60239;SDS011;46102;39.012;-7.064;2023-02-15T11:28:37;3.90;;;1.83;;
60239;SDS011;46102;39.012;-7.064;2023-02-15T11:30:43;2.50;;;1.90;;
60239;SDS011;46102;39.012;-7.064;2023-02-15T11:32:55;4.43;;;1.88;;
60239;SDS011;46102;39.012;-7.064;2023-02-15T11:37:12;3.70;;;2.28;;
60239;SDS011;46102;39.012;-7.064;2023-02-15T11:39:18;3.72;;;1.92;;
60239;SDS011;46102;39.012;-7.064;2023-02-15T11:41:23;2.35;;;2.05;;
60239;SDS011;46102;39.012;-7.064;2023-02-15T11:43:31;4.65;;;2.40;;
60239;SDS011;46102;39.012;-7.064;2023-02-15T11:45:44;2.20;;;1.58;;
60239;SDS011;46102;39.012;-7.064;2023-02-15T11:47:46;2.13;;;2.00;;
60239;SDS011;46102;39.012;-7.064;2023-02-15T11:49:48;2.35;;;2.10;;
60239;SDS011;46102;39.012;-7.064;2023-02-15T11:51:50;2.03;;;1.88;;
60239;SDS011;46102;39.012;-7.064;2023-02-15T11:53:52;4.25;;;2.00;;
60239;SDS011;46102;39.012;-7.064;2023-02-15T11:55:53;2.13;;;2.03;;
60239;SDS011;46102;39.012;-7.064;2023-02-15T11:58:00;2.28;;;2.00;;
60239;SDS011;46102;39.012;-7.064;2023-02-15T12:00:11;1.80;;;1.70;;
60239;SDS011;46102;39.012;-7.064;2023-02-15T12:02:20;3.17;;;2.00;;
60239;SDS011;46102;39.012;-7.064;2023-02-15T12:04:24;5.00;;;2.20;;
60239;SDS011;46102;39.012;-7.064;2023-02-15T12:06:30;5.30;;;2.28;;
60239;SDS011;46102;39.012;-7.064;2023-02-15T12:08:41;3.60;;;2.10;;
60239;SDS011;46102;39.012;-7.064;2023-02-15T12:11:03;3.63;;;2.15;;
60239;SDS011;46102;39.012;-7.064;2023-02-15T12:13:13;3.65;;;2.08;;
60239;SDS011;46102;39.012;-7.064;2023-02-15T12:15:16;2.60;;;2.40;;
60239;SDS011;46102;39.012;-7.064;2023-02-15T12:17:32;2.35;;;2.05;;
60239;SDS011;46102;39.012;-7.064;2023-02-15T12:19:38;4.47;;;1.98;;
60239;SDS011;46102;39.012;-7.064;2023-02-15T12:21:40;3.13;;;2.03;;
60239;SDS011;46102;39.012;-7.064;2023-02-15T12:23:48;3.42;;;2.38;;
60239;SDS011;46102;39.012;-7.064;2023-02-15T12:25:52;6.45;;;2.47;;
60239;SDS011;46102;39.012;-7.064;2023-02-15T12:27:54;4.03;;;2.00;;
60239;SDS011;46102;39.012;-7.064;2023-02-15T12:29:59;2.28;;;2.08;;
60239;SDS011;46102;39.012;-7.064;2023-02-15T12:32:04;7.03;;;2.40;;
60239;SDS011;46102;39.012;-7.064;2023-02-15T12:34:12;3.08;;;1.40;;
60239;SDS011;46102;39.012;-7.064;2023-02-15T12:38:29;6.80;;;1.58;;
60239;SDS011;46102;39.012;-7.064;2023-02-15T12:40:30;2.05;;;1.90;;
60239;SDS011;46102;39.012;-7.064;2023-02-15T12:42:43;4.10;;;2.23;;
60239;SDS011;46102;39.012;-7.064;2023-02-15T12:44:58;2.88;;;1.90;;
60239;SDS011;46102;39.012;-7.064;2023-02-15T12:49:18;2.38;;;1.80;;
60239;SDS011;46102;39.012;-7.064;2023-02-15T12:51:20;2.40;;;2.20;;
60239;SDS011;46102;39.012;-7.064;2023-02-15T12:55:25;4.22;;;1.70;;
60239;SDS011;46102;39.012;-7.064;2023-02-15T12:57:31;3.78;;;2.08;;
60239;SDS011;46102;39.012;-7.064;2023-02-15T12:59:33;2.40;;;1.73;;
60239;SDS011;46102;39.012;-7.064;2023-02-15T13:01:33;3.25;;;1.70;;
60239;SDS011;46102;39.012;-7.064;2023-02-15T13:05:54;5.03;;;2.30;;
60239;SDS011;46102;39.012;-7.064;2023-02-15T13:07:58;2.40;;;2.23;;
60239;SDS011;46102;39.012;-7.064;2023-02-15T13:10:02;4.22;;;2.65;;
60239;SDS011;46102;39.012;-7.064;2023-02-15T13:12:24;3.00;;;2.00;;
60239;SDS011;46102;39.012;-7.064;2023-02-15T13:14:31;2.92;;;2.25;;
60239;SDS011;46102;39.012;-7.064;2023-02-15T13:16:38;2.33;;;1.70;;
60239;SDS011;46102;39.012;-7.064;2023-02-15T13:18:44;1.67;;;1.58;;
60239;SDS011;46102;39.012;-7.064;2023-02-15T13:20:47;1.98;;;1.30;;
60239;SDS011;46102;39.012;-7.064;2023-02-15T13:22:50;3.00;;;2.42;;
60239;SDS011;46102;39.012;-7.064;2023-02-15T13:24:56;2.72;;;1.98;;
60239;SDS011;46102;39.012;-7.064;2023-02-15T13:26:59;2.70;;;2.00;;
60239;SDS011;46102;39.012;-7.064;2023-02-15T13:29:04;2.90;;;1.60;;
60239;SDS011;46102;39.012;-7.064;2023-02-15T13:31:11;5.25;;;2.08;;
60239;SDS011;46102;39.012;-7.064;2023-02-15T13:35:18;3.88;;;2.13;;
60239;SDS011;46102;39.012;-7.064;2023-02-15T13:37:20;3.75;;;2.20;;
60239;SDS011;46102;39.012;-7.064;2023-02-15T13:39:37;3.22;;;1.88;;
60239;SDS011;46102;39.012;-7.064;2023-02-15T13:41:58;5.78;;;1.67;;
60239;SDS011;46102;39.012;-7.064;2023-02-15T13:48:25;7.03;;;1.88;;
60239;SDS011;46102;39.012;-7.064;2023-02-15T13:51:13;8.57;;;1.90;;
60239;SDS011;46102;39.012;-7.064;2023-02-15T13:53:37;5.57;;;1.95;;
60239;SDS011;46102;39.012;-7.064;2023-02-15T13:55:48;7.38;;;2.00;;
60239;SDS011;46102;39.012;-7.064;2023-02-15T13:57:56;2.20;;;1.50;;
60239;SDS011;46102;39.012;-7.064;2023-02-15T14:00:10;2.33;;;1.77;;
60239;SDS011;46102;39.012;-7.064;2023-02-15T14:13:46;2.78;;;1.30;;
60239;SDS011;46102;39.012;-7.064;2023-02-15T14:23:02;1.27;;;1.17;;